createdAt,value
2022-08-26T00:01:56.955Z,98.70
2022-08-26T00:04:25.859Z,97.00
2022-08-26T00:06:55.676Z,95.00
2022-08-26T00:09:25.112Z,97.60
2022-08-26T00:11:53.968Z,98.60
2022-08-26T00:14:27.043Z,99.00
2022-08-26T00:16:56.929Z,93.30
2022-08-26T00:19:24.749Z,93.20
2022-08-26T00:21:51.778Z,93.40
2022-08-26T00:24:21.732Z,99.10
2022-08-26T00:26:50.106Z,98.30
2022-08-26T00:29:19.084Z,99.20
2022-08-26T00:31:48.394Z,93.90
2022-08-26T00:34:16.801Z,97.50
2022-08-26T00:36:47.888Z,97.90
2022-08-26T00:39:19.931Z,99.20
2022-08-26T00:41:47.912Z,93.60
2022-08-26T00:44:15.016Z,93.60
2022-08-26T00:46:47.215Z,93.90
2022-08-26T00:49:21.649Z,98.10
2022-08-26T00:51:55.874Z,93.80
2022-08-26T00:54:27.507Z,98.40
2022-08-26T00:57:08.750Z,93.90
2022-08-26T01:00:06.776Z,96.20
2022-08-26T01:02:34.142Z,99.50
2022-08-26T01:05:04.669Z,94.60
2022-08-26T01:07:33.269Z,94.20
2022-08-26T01:10:07.965Z,94.40
2022-08-26T01:12:41.738Z,99.70
2022-08-26T01:15:19.243Z,94.60
2022-08-26T01:17:47.361Z,94.30
2022-08-26T01:20:49.957Z,94.40
2022-08-26T01:23:17.421Z,94.10
2022-08-26T01:25:56.846Z,94.90
2022-08-26T01:28:29.792Z,97.30
2022-08-26T01:30:58.032Z,99.20
2022-08-26T01:33:55.713Z,98.70
2022-08-26T01:36:24.930Z,99.90
2022-08-26T01:38:52.829Z,99.70
2022-08-26T01:41:27.247Z,95.70
2022-08-26T01:43:57.896Z,95.30
2022-08-26T01:46:27.031Z,99.80
2022-08-26T01:48:57.386Z,95.20
2022-08-26T01:51:26.222Z,95.60
2022-08-26T01:53:53.906Z,95.20
2022-08-26T01:56:23.591Z,95.30
2022-08-26T01:59:04.032Z,95.10
2022-08-26T02:01:31.359Z,95.40
2022-08-26T02:04:16.951Z,99.90
2022-08-26T02:06:45.167Z,99.70
2022-08-26T02:09:13.221Z,98.70
2022-08-26T02:11:42.261Z,99.60
2022-08-26T02:14:17.430Z,95.40
2022-08-26T02:16:50.249Z,99.10
2022-08-26T02:19:30.517Z,99.90
2022-08-26T02:22:04.523Z,99.90
2022-08-26T02:24:55.830Z,95.80
2022-08-26T02:27:32.825Z,95.70
2022-08-26T02:30:23.461Z,99.90
2022-08-26T02:32:51.842Z,99.90
2022-08-26T02:35:22.327Z,99.90
2022-08-26T02:37:51.950Z,99.90
2022-08-26T02:40:26.933Z,99.40
2022-08-26T02:42:56.098Z,96.40
2022-08-26T02:45:26.443Z,99.90
2022-08-26T02:47:53.943Z,99.90
2022-08-26T02:50:21.293Z,96.10
2022-08-26T02:52:49.684Z,99.90
2022-08-26T02:55:17.733Z,99.90
2022-08-26T02:57:44.745Z,96.40
2022-08-26T03:00:15.244Z,96.70
2022-08-26T03:02:42.749Z,99.90
2022-08-26T03:05:11.668Z,96.90
2022-08-26T03:07:39.045Z,97.20
2022-08-26T03:10:08.675Z,99.90
2022-08-26T03:12:36.292Z,96.60
2022-08-26T03:15:16.429Z,96.50
2022-08-26T03:17:48.042Z,96.80
2022-08-26T03:20:17.362Z,96.70
2022-08-26T03:22:45.073Z,97.00
2022-08-26T03:25:16.426Z,99.90
2022-08-26T03:27:44.022Z,96.80
2022-08-26T03:30:32.582Z,99.90
2022-08-26T03:33:00.874Z,99.90
2022-08-26T03:35:27.958Z,99.90
2022-08-26T03:37:55.499Z,97.70
2022-08-26T03:40:22.903Z,97.20
2022-08-26T03:42:50.810Z,97.10
2022-08-26T03:45:19.729Z,99.90
2022-08-26T03:47:48.039Z,97.30
2022-08-26T03:50:22.830Z,99.90
2022-08-26T03:52:52.826Z,97.80
2022-08-26T03:55:23.769Z,97.30
2022-08-26T03:57:52.150Z,97.50
2022-08-26T04:00:20.792Z,97.50
2022-08-26T04:02:51.215Z,99.90
2022-08-26T04:05:22.758Z,99.90
2022-08-26T04:07:51.242Z,98.00
2022-08-26T04:10:28.681Z,99.90
2022-08-26T04:12:58.860Z,97.80
2022-08-26T04:15:32.909Z,99.90
2022-08-26T04:18:00.872Z,99.90
2022-08-26T04:20:28.484Z,99.90
2022-08-26T04:22:55.506Z,99.90
2022-08-26T04:25:22.595Z,99.90
2022-08-26T04:27:51.541Z,99.90
2022-08-26T04:30:20.009Z,99.90
2022-08-26T04:32:47.035Z,98.30
2022-08-26T04:35:14.434Z,99.90
2022-08-26T04:37:43.099Z,99.90
2022-08-26T04:40:11.336Z,99.90
2022-08-26T04:42:38.384Z,99.90
2022-08-26T04:45:10.260Z,98.50
2022-08-26T04:47:37.765Z,97.90
2022-08-26T04:50:06.937Z,98.60
2022-08-26T04:52:36.237Z,99.90
2022-08-26T04:55:06.695Z,98.40
2022-08-26T04:57:35.903Z,99.90
2022-08-26T05:00:06.899Z,99.90
2022-08-26T05:02:34.272Z,99.90
2022-08-26T05:05:01.378Z,99.90
2022-08-26T05:07:28.581Z,99.90
2022-08-26T05:09:55.626Z,99.90
2022-08-26T05:12:23.306Z,99.90
2022-08-26T05:14:50.285Z,99.90
2022-08-26T05:17:18.925Z,99.10
2022-08-26T05:19:46.000Z,99.90
2022-08-26T05:22:14.117Z,99.90
2022-08-26T05:24:42.165Z,99.90
2022-08-26T05:27:11.671Z,99.90
2022-08-26T05:29:39.894Z,99.70
2022-08-26T05:32:07.540Z,99.90
2022-08-26T05:34:34.534Z,99.50
2022-08-26T05:37:01.965Z,99.90
2022-08-26T05:39:29.392Z,99.80
2022-08-26T05:41:56.405Z,99.90
2022-08-26T05:44:23.874Z,99.90
2022-08-26T05:46:51.821Z,99.90
2022-08-26T05:49:18.977Z,99.90
2022-08-26T05:51:47.939Z,99.90
2022-08-26T05:54:21.795Z,99.50
2022-08-26T05:56:50.949Z,99.90
2022-08-26T05:59:24.374Z,99.90
2022-08-26T06:01:54.642Z,99.90
2022-08-26T06:04:23.348Z,99.90
2022-08-26T06:06:53.894Z,99.90
2022-08-26T06:09:20.926Z,99.90
2022-08-26T06:11:48.636Z,99.90
2022-08-26T06:14:17.237Z,99.90
2022-08-26T06:16:45.608Z,99.90
2022-08-26T06:19:15.606Z,99.90
2022-08-26T06:21:46.486Z,99.90
2022-08-26T06:24:33.523Z,99.90
2022-08-26T06:27:09.571Z,99.90
2022-08-26T06:29:38.606Z,99.90
2022-08-26T06:32:06.908Z,99.90
2022-08-26T06:34:35.876Z,99.90
2022-08-26T06:37:03.683Z,99.90
2022-08-26T06:39:31.943Z,99.90
2022-08-26T06:42:00.596Z,99.90
2022-08-26T06:44:28.048Z,99.90
2022-08-26T06:46:55.318Z,99.90
2022-08-26T06:49:27.263Z,99.90
2022-08-26T06:51:58.404Z,99.90
2022-08-26T06:54:27.323Z,99.90
2022-08-26T06:56:56.936Z,99.90
2022-08-26T06:59:24.710Z,99.90
2022-08-26T07:01:52.415Z,99.90
2022-08-26T07:04:22.297Z,99.90
2022-08-26T07:06:52.411Z,99.90
2022-08-26T07:09:22.960Z,99.90
2022-08-26T07:11:51.423Z,99.90
2022-08-26T07:14:21.626Z,99.90
2022-08-26T07:16:50.597Z,99.90
2022-08-26T07:19:29.981Z,99.90
2022-08-26T07:22:02.106Z,99.90
2022-08-26T07:24:31.166Z,99.90
2022-08-26T07:27:06.166Z,99.90
2022-08-26T07:29:35.265Z,99.90
2022-08-26T07:32:03.403Z,99.90
2022-08-26T07:34:32.315Z,99.90
2022-08-26T07:37:01.296Z,99.90
2022-08-26T07:39:32.903Z,99.90
2022-08-26T07:42:07.796Z,99.90
2022-08-26T07:44:44.200Z,99.90
2022-08-26T07:47:25.899Z,99.90
2022-08-26T07:49:57.811Z,99.90
2022-08-26T07:52:27.551Z,99.90
2022-08-26T07:54:58.374Z,99.90
2022-08-26T07:57:27.159Z,99.90
2022-08-26T07:59:56.104Z,99.90
2022-08-26T08:02:25.834Z,99.90
2022-08-26T08:04:58.329Z,99.90
2022-08-26T08:07:44.380Z,99.90
2022-08-26T08:10:21.055Z,99.90
2022-08-26T08:12:49.371Z,99.90
2022-08-26T08:15:21.773Z,99.90
2022-08-26T08:17:50.519Z,99.90
2022-08-26T08:20:19.663Z,99.90
2022-08-26T08:22:47.637Z,99.90
2022-08-26T08:25:15.125Z,99.90
2022-08-26T08:27:48.595Z,99.90
2022-08-26T08:30:22.751Z,99.90
2022-08-26T08:32:51.098Z,99.90
2022-08-26T08:35:23.371Z,99.90
2022-08-26T08:37:54.397Z,99.90
2022-08-26T08:40:25.980Z,99.90
2022-08-26T08:43:07.909Z,99.90
2022-08-26T08:45:43.132Z,99.90
2022-08-26T08:48:27.910Z,99.90
2022-08-26T08:51:30.543Z,99.90
2022-08-26T08:54:00.338Z,99.90
2022-08-26T08:56:47.104Z,99.90
2022-08-26T08:59:25.518Z,99.90
2022-08-26T09:02:02.299Z,99.90
2022-08-26T09:05:00.830Z,99.90
2022-08-26T09:08:11.358Z,99.90
2022-08-26T09:10:48.484Z,99.90
2022-08-26T09:13:25.332Z,99.90
2022-08-26T09:16:26.257Z,98.60
2022-08-26T09:19:11.275Z,98.80
2022-08-26T09:21:38.754Z,99.90
2022-08-26T09:24:06.650Z,99.90
2022-08-26T09:26:39.561Z,99.40
2022-08-26T09:32:24.186Z,99.90
2022-08-26T09:35:02.160Z,99.90
2022-08-26T09:37:43.476Z,99.90
2022-08-26T09:40:29.137Z,99.90
2022-08-26T09:43:22.513Z,99.50
2022-08-26T09:45:59.313Z,99.90
2022-08-26T09:48:35.484Z,99.90
2022-08-26T09:51:24.192Z,99.90
2022-08-26T09:53:58.526Z,99.90
2022-08-26T09:56:33.545Z,99.90
2022-08-26T09:59:02.142Z,99.90
2022-08-26T10:01:38.373Z,99.90
2022-08-26T10:04:10.908Z,99.60
2022-08-26T10:06:54.668Z,99.90
2022-08-26T10:09:23.906Z,98.50
2022-08-26T10:11:54.206Z,97.40
2022-08-26T10:14:39.377Z,99.90
2022-08-26T10:17:35.725Z,99.90
2022-08-26T10:20:23.269Z,99.90
2022-08-26T10:23:14.866Z,99.90
2022-08-26T10:25:53.860Z,99.90
2022-08-26T10:28:47.333Z,99.90
2022-08-26T10:31:38.205Z,99.90
2022-08-26T10:34:08.910Z,99.90
2022-08-26T10:37:13.622Z,99.90
2022-08-26T10:40:08.105Z,99.90
2022-08-26T10:42:58.577Z,99.90
2022-08-26T10:45:33.190Z,99.90
2022-08-26T10:50:37.890Z,99.90
2022-08-26T10:53:24.975Z,99.90
2022-08-26T10:56:37.742Z,99.90
2022-08-26T10:59:24.441Z,99.90
2022-08-26T11:02:25.895Z,99.90
2022-08-26T11:05:04.449Z,99.90
2022-08-26T11:07:40.409Z,99.90
2022-08-26T11:10:19.073Z,99.90
2022-08-26T11:12:53.753Z,99.90
2022-08-26T11:17:51.864Z,99.90
2022-08-26T11:20:41.753Z,99.90
2022-08-26T11:23:23.990Z,99.90
2022-08-26T11:25:57.207Z,99.90
2022-08-26T11:28:47.828Z,99.90
2022-08-26T11:31:27.095Z,99.90
2022-08-26T11:34:02.894Z,99.90
2022-08-26T11:36:29.830Z,99.90
2022-08-26T11:38:58.726Z,99.90
2022-08-26T11:41:29.747Z,98.40
2022-08-26T11:43:59.671Z,99.90
2022-08-26T11:46:35.718Z,99.90
2022-08-26T11:49:06.860Z,99.90
2022-08-26T11:51:40.357Z,99.80
2022-08-26T11:54:35.480Z,99.90
2022-08-26T11:57:09.493Z,99.90
2022-08-26T11:59:40.575Z,99.90
2022-08-26T12:02:17.929Z,99.90
2022-08-26T12:04:49.696Z,99.90
2022-08-26T12:07:23.964Z,99.90
2022-08-26T12:10:02.207Z,99.40
2022-08-26T12:12:36.137Z,99.90
2022-08-26T12:15:19.955Z,99.90
2022-08-26T12:17:53.412Z,99.90
2022-08-26T12:20:54.267Z,99.90
2022-08-26T12:23:45.208Z,99.90
2022-08-26T12:26:20.855Z,99.90
2022-08-26T12:29:02.380Z,99.90
2022-08-26T12:31:47.853Z,99.90
2022-08-26T12:34:17.588Z,99.90
2022-08-26T12:36:53.043Z,99.90
2022-08-26T12:39:38.347Z,99.90
2022-08-26T12:42:41.302Z,99.30
2022-08-26T12:45:09.512Z,99.90
2022-08-26T12:47:44.201Z,97.80
2022-08-26T12:50:35.038Z,97.50
2022-08-26T12:53:07.046Z,94.90
2022-08-26T12:55:50.745Z,95.80
2022-08-26T12:58:39.004Z,95.90
2022-08-26T13:01:08.822Z,97.60
2022-08-26T13:03:38.612Z,95.50
2022-08-26T13:06:27.832Z,97.30
2022-08-26T13:09:23.963Z,96.70
2022-08-26T13:11:53.134Z,98.10
2022-08-26T13:14:24.224Z,99.20
2022-08-26T13:16:52.473Z,95.00
2022-08-26T13:19:23.615Z,99.10
2022-08-26T13:21:56.747Z,96.10
2022-08-26T13:24:33.746Z,97.00
2022-08-26T13:27:02.543Z,98.30
2022-08-26T13:29:29.592Z,94.50
2022-08-26T13:31:58.775Z,94.50
2022-08-26T13:34:26.135Z,96.20
2022-08-26T13:36:55.232Z,96.00
2022-08-26T13:39:23.777Z,95.30
2022-08-26T13:41:51.590Z,94.90
2022-08-26T13:44:19.352Z,99.70
2022-08-26T13:46:46.396Z,97.60
2022-08-26T13:49:13.600Z,95.80
2022-08-26T13:51:41.724Z,96.70
2022-08-26T13:56:37.605Z,93.70
2022-08-26T13:59:05.733Z,93.10
2022-08-26T14:01:34.923Z,93.20
2022-08-26T14:04:03.063Z,92.40
2022-08-26T14:06:30.302Z,93.60
2022-08-26T14:08:57.531Z,97.30
2022-08-26T14:11:25.078Z,93.30
2022-08-26T14:13:52.485Z,96.30
2022-08-26T14:16:37.171Z,95.90
2022-08-26T14:19:24.326Z,95.20
2022-08-26T14:21:51.577Z,95.10
2022-08-26T14:24:19.076Z,94.60
2022-08-26T14:26:48.501Z,96.10
2022-08-26T14:29:16.861Z,97.10
2022-08-26T14:31:44.737Z,93.00
2022-08-26T14:34:14.165Z,96.20
2022-08-26T14:36:41.300Z,93.00
2022-08-26T14:39:12.274Z,95.20
2022-08-26T14:41:53.841Z,91.60
2022-08-26T14:44:27.042Z,97.90
2022-08-26T14:46:56.125Z,94.60
2022-08-26T14:49:25.369Z,95.30
2022-08-26T14:51:52.385Z,97.20
2022-08-26T14:54:21.204Z,94.40
2022-08-26T14:56:54.110Z,90.50
2022-08-26T14:59:34.235Z,92.80
2022-08-26T15:02:01.834Z,91.00
2022-08-26T15:04:29.248Z,94.20
2022-08-26T15:06:58.762Z,92.40
2022-08-26T15:09:29.625Z,92.00
2022-08-26T15:11:57.322Z,95.50
2022-08-26T15:14:26.032Z,90.60
2022-08-26T15:16:56.860Z,92.60
2022-08-26T15:19:26.138Z,92.30
2022-08-26T15:21:53.600Z,93.00
2022-08-26T15:24:24.820Z,90.40
2022-08-26T15:26:53.068Z,90.00
2022-08-26T15:29:20.394Z,93.70
2022-08-26T15:31:47.798Z,92.10
2022-08-26T15:34:16.934Z,90.90
2022-08-26T15:36:47.064Z,91.50
2022-08-26T15:39:16.540Z,90.60
2022-08-26T15:41:43.795Z,88.70
2022-08-26T15:44:11.923Z,89.50
2022-08-26T15:46:40.133Z,93.40
2022-08-26T15:49:07.290Z,97.90
2022-08-26T15:51:45.259Z,93.80
2022-08-26T15:54:14.254Z,97.90
2022-08-26T15:56:41.541Z,94.40
2022-08-26T15:59:11.829Z,98.40
2022-08-26T16:01:39.658Z,94.60
2022-08-26T16:06:37.856Z,94.50
2022-08-26T16:09:06.611Z,96.30
2022-08-26T16:11:35.277Z,96.20
2022-08-26T16:14:04.490Z,98.30
2022-08-26T16:16:32.173Z,95.30
2022-08-26T16:19:06.858Z,97.30
2022-08-26T16:21:35.160Z,92.40
2022-08-26T16:24:03.363Z,96.50
2022-08-26T16:26:36.589Z,94.40
2022-08-26T16:29:08.101Z,93.60
2022-08-26T16:31:38.289Z,91.40
2022-08-26T16:34:07.092Z,90.40
2022-08-26T16:36:36.499Z,91.10
2022-08-26T16:39:05.945Z,97.40
2022-08-26T16:41:33.181Z,96.40
2022-08-26T16:44:00.901Z,97.60
2022-08-26T16:46:29.240Z,91.90
2022-08-26T16:48:58.715Z,96.50
2022-08-26T16:51:28.083Z,99.90
2022-08-26T16:53:56.924Z,97.60
2022-08-26T16:56:30.595Z,99.90
2022-08-26T16:59:06.079Z,99.90
2022-08-26T17:01:33.258Z,99.90
2022-08-26T17:04:00.356Z,99.90
2022-08-26T17:08:55.048Z,99.90
2022-08-26T17:11:22.050Z,99.90
2022-08-26T17:13:49.141Z,99.90
2022-08-26T17:16:16.406Z,99.90
2022-08-26T17:18:43.551Z,99.90
2022-08-26T17:21:12.960Z,99.90
2022-08-26T17:23:41.903Z,99.90
2022-08-26T17:26:10.711Z,99.90
2022-08-26T17:28:38.416Z,99.90
2022-08-26T17:31:06.935Z,99.90
2022-08-26T17:33:34.269Z,99.90
2022-08-26T17:36:01.462Z,99.90
2022-08-26T17:38:29.216Z,99.90
2022-08-26T17:40:57.581Z,99.90
2022-08-26T17:43:26.813Z,99.90
2022-08-26T17:46:06.986Z,99.90
2022-08-26T17:48:36.662Z,99.90
2022-08-26T17:51:13.973Z,99.90
2022-08-26T17:53:42.426Z,99.90
2022-08-26T17:56:12.585Z,99.90
2022-08-26T17:58:40.750Z,99.90
2022-08-26T18:01:15.234Z,99.90
2022-08-26T18:03:42.406Z,99.90
2022-08-26T18:06:12.213Z,99.90
2022-08-26T18:08:41.293Z,99.90
2022-08-26T18:11:15.888Z,99.90
2022-08-26T18:13:47.035Z,99.90
2022-08-26T18:16:17.973Z,99.90
2022-08-26T18:18:47.232Z,99.90
2022-08-26T18:21:19.095Z,99.90
2022-08-26T18:23:47.374Z,99.90
2022-08-26T18:29:19.362Z,99.90
2022-08-26T18:31:46.640Z,99.90
2022-08-26T18:34:15.510Z,99.90
2022-08-26T18:36:43.816Z,99.90
2022-08-26T18:39:12.570Z,99.90
2022-08-26T18:41:47.066Z,99.90
2022-08-26T18:44:16.577Z,99.90
2022-08-26T18:46:45.741Z,99.90
2022-08-26T18:49:15.423Z,99.90
2022-08-26T18:51:44.066Z,99.90
2022-08-26T18:54:11.974Z,99.90
2022-08-26T18:56:40.395Z,99.90
2022-08-26T18:59:08.962Z,99.90
2022-08-26T19:01:40.755Z,99.90
2022-08-26T19:04:15.489Z,99.90
2022-08-26T19:06:46.324Z,99.90
2022-08-26T19:09:14.617Z,99.90
2022-08-26T19:11:43.195Z,99.90
2022-08-26T19:14:14.680Z,99.90
2022-08-26T19:16:46.036Z,99.90
2022-08-26T19:19:14.954Z,99.90
2022-08-26T19:21:42.595Z,99.90
2022-08-26T19:24:17.308Z,99.90
2022-08-26T19:26:51.343Z,99.90
2022-08-26T19:29:29.206Z,99.90
2022-08-26T19:31:56.587Z,99.90
2022-08-26T19:34:24.202Z,99.90
2022-08-26T19:39:21.533Z,99.90
2022-08-26T19:41:48.978Z,99.90
2022-08-26T19:44:39.718Z,99.90
2022-08-26T19:47:09.585Z,99.90
2022-08-26T19:49:38.490Z,99.90
2022-08-26T19:52:06.144Z,99.90
2022-08-26T19:54:33.834Z,99.90
2022-08-26T19:57:00.839Z,99.90
2022-08-26T19:59:29.046Z,99.90
2022-08-26T20:02:01.134Z,99.90
2022-08-26T20:04:31.179Z,99.90
2022-08-26T20:07:00.877Z,99.90
2022-08-26T20:09:33.956Z,99.90
2022-08-26T20:12:02.789Z,99.90
2022-08-26T20:14:30.016Z,99.90
2022-08-26T20:16:57.291Z,99.90
2022-08-26T20:19:43.205Z,99.90
2022-08-26T20:22:11.505Z,99.90
2022-08-26T20:24:39.121Z,99.90
2022-08-26T20:27:07.924Z,99.90
2022-08-26T20:29:36.923Z,99.90
2022-08-26T20:32:06.165Z,99.90
2022-08-26T20:34:33.644Z,99.90
2022-08-26T20:37:01.079Z,99.90
2022-08-26T20:39:31.386Z,99.90
2022-08-26T20:41:59.203Z,99.90
2022-08-26T20:44:26.459Z,99.90
2022-08-26T20:46:53.665Z,99.90
2022-08-26T20:49:20.841Z,99.90
2022-08-26T20:51:52.114Z,99.90
2022-08-26T20:54:26.231Z,99.90
2022-08-26T20:56:57.384Z,99.90
2022-08-26T20:59:25.752Z,99.90
2022-08-26T21:01:53.154Z,99.90
2022-08-26T21:04:23.756Z,99.90
2022-08-26T21:06:52.911Z,99.90
2022-08-26T21:09:25.257Z,99.90
2022-08-26T21:11:54.784Z,99.90
2022-08-26T21:14:25.962Z,99.90
2022-08-26T21:16:53.534Z,99.90
2022-08-26T21:19:20.629Z,99.90
2022-08-26T21:21:49.172Z,99.90
2022-08-26T21:24:16.884Z,99.90
2022-08-26T21:26:44.420Z,99.90
2022-08-26T21:29:13.519Z,99.90
2022-08-26T21:31:45.993Z,99.90
2022-08-26T21:34:17.313Z,99.90
2022-08-26T21:36:46.657Z,99.90
2022-08-26T21:39:14.724Z,99.90
2022-08-26T21:41:43.543Z,99.90
2022-08-26T21:44:12.754Z,99.90
2022-08-26T21:46:40.228Z,99.90
2022-08-26T21:49:13.611Z,99.90
2022-08-26T21:51:45.906Z,99.90
2022-08-26T21:54:13.489Z,99.90
2022-08-26T21:56:46.477Z,99.90
2022-08-26T21:59:16.787Z,99.90
2022-08-26T22:01:43.975Z,99.90
2022-08-26T22:04:11.051Z,99.90
2022-08-26T22:06:49.026Z,99.90
2022-08-26T22:09:20.736Z,99.90
2022-08-26T22:11:48.415Z,99.90
2022-08-26T22:14:17.396Z,99.90
2022-08-26T22:16:50.306Z,99.90
2022-08-26T22:19:19.910Z,99.90
2022-08-26T22:21:50.015Z,99.90
2022-08-26T22:24:20.966Z,99.90
2022-08-26T22:26:48.980Z,99.90
2022-08-26T22:29:17.089Z,99.90
2022-08-26T22:31:45.692Z,99.90
2022-08-26T22:34:17.115Z,99.90
2022-08-26T22:36:47.157Z,99.90
2022-08-26T22:39:18.629Z,99.90
2022-08-26T22:41:46.600Z,99.90
2022-08-26T22:44:13.617Z,99.90
2022-08-26T22:46:41.970Z,99.90
2022-08-26T22:49:12.447Z,99.90
2022-08-26T22:51:39.599Z,99.90
2022-08-26T22:54:06.668Z,99.90
2022-08-26T22:56:34.670Z,99.90
2022-08-26T22:59:01.804Z,99.90
2022-08-26T23:01:28.888Z,99.90
2022-08-26T23:03:55.916Z,99.90
2022-08-26T23:06:23.073Z,99.90
2022-08-26T23:08:50.159Z,99.90
2022-08-26T23:11:17.388Z,99.90
2022-08-26T23:13:44.356Z,99.90
2022-08-26T23:16:13.330Z,99.90
2022-08-26T23:18:41.437Z,99.90
2022-08-26T23:21:09.238Z,99.90
2022-08-26T23:23:37.359Z,99.90
2022-08-26T23:26:07.001Z,99.90
2022-08-26T23:28:38.345Z,99.90
2022-08-26T23:31:06.489Z,99.90
2022-08-26T23:33:52.356Z,99.90
2022-08-26T23:36:22.980Z,99.90
2022-08-26T23:38:52.693Z,99.90
2022-08-26T23:41:22.300Z,99.90
2022-08-26T23:43:51.529Z,99.90
2022-08-26T23:46:19.374Z,99.90
2022-08-26T23:48:46.926Z,99.90
2022-08-26T23:51:32.988Z,99.90
2022-08-26T23:54:00.236Z,99.90
2022-08-26T23:56:27.585Z,99.90
2022-08-26T23:58:56.590Z,99.90
